createdAt,value
2018-01-03T00:00:04.366Z,26.3
2018-01-03T00:01:04.475Z,26.4
2018-01-03T00:02:04.535Z,26.4
2018-01-03T00:03:04.547Z,26.4
2018-01-03T00:04:04.664Z,26.4
2018-01-03T00:05:07.899Z,26.4
2018-01-03T00:06:04.698Z,26.4
2018-01-03T00:07:07.975Z,26.3
2018-01-03T00:08:08.046Z,26.4
2018-01-03T00:09:08.018Z,26.3
2018-01-03T00:10:04.908Z,26.4
2018-01-03T00:11:04.839Z,26.3
2018-01-03T00:12:08.149Z,26.4
2018-01-03T00:13:08.153Z,26.4
2018-01-03T00:14:05.003Z,26.4
2018-01-03T00:15:08.309Z,26.4
2018-01-03T00:16:05.214Z,26.4
2018-01-03T00:17:05.519Z,26.4
2018-01-03T00:18:05.259Z,26.4
2018-01-03T00:19:08.522Z,26.4
2018-01-03T00:20:08.520Z,26.3
2018-01-03T00:21:05.442Z,26.4
2018-01-03T00:22:08.311Z,26.4
2018-01-03T00:23:05.561Z,26.4
2018-01-03T00:24:08.730Z,26.4
2018-01-03T00:25:08.442Z,26.4
2018-01-03T00:26:05.594Z,26.4
2018-01-03T00:27:05.677Z,26.4
2018-01-03T00:28:06.009Z,26.4
2018-01-03T00:29:06.041Z,26.4
2018-01-03T00:30:06.123Z,26.4
2018-01-03T00:31:05.840Z,26.4
2018-01-03T00:32:05.891Z,26.4
2018-01-03T00:33:06.256Z,26.4
2018-01-03T00:34:05.920Z,26.4
2018-01-03T00:35:06.043Z,26.3
2018-01-03T00:36:06.074Z,26.4
2018-01-03T00:37:06.092Z,26.4
2018-01-03T00:38:09.295Z,26.4
2018-01-03T00:39:09.355Z,26.4
2018-01-03T00:40:06.281Z,26.4
2018-01-03T00:41:09.534Z,26.4
2018-01-03T00:42:06.274Z,26.4
2018-01-03T00:43:06.660Z,26.4
2018-01-03T00:44:06.430Z,26.4
2018-01-03T00:45:09.699Z,26.4
2018-01-03T00:46:06.877Z,26.4
2018-01-03T00:47:09.842Z,26.4
2018-01-03T00:48:06.688Z,26.4
2018-01-03T00:49:09.923Z,26.4
2018-01-03T00:50:07.141Z,26.4
2018-01-03T00:51:10.111Z,26.4
2018-01-03T00:52:07.294Z,26.4
2018-01-03T00:53:09.973Z,26.4
2018-01-03T00:54:07.099Z,26.4
2018-01-03T00:55:07.187Z,26.3
2018-01-03T00:56:07.215Z,26.4
2018-01-03T00:57:07.636Z,26.4
2018-01-03T00:58:07.447Z,26.4
2018-01-03T00:59:07.409Z,26.4
2018-01-03T01:00:07.501Z,26.4
2018-01-03T01:01:07.558Z,26.4
2018-01-03T01:02:10.775Z,26.4
2018-01-03T01:03:10.819Z,26.4
2018-01-03T01:04:07.679Z,26.4
2018-01-03T01:05:10.989Z,26.4
2018-01-03T01:06:07.773Z,26.4
2018-01-03T01:07:08.097Z,26.4
2018-01-03T01:08:08.191Z,26.4
2018-01-03T01:09:08.180Z,26.4
2018-01-03T01:10:08.307Z,26.4
2018-01-03T01:11:08.017Z,26.4
2018-01-03T01:12:08.013Z,26.4
2018-01-03T01:13:11.337Z,26.4
2018-01-03T01:14:08.240Z,26.4
2018-01-03T01:15:11.106Z,26.4
2018-01-03T01:16:10.646Z,26.4
2018-01-03T01:17:08.730Z,26.4
2018-01-03T01:18:08.478Z,26.3
2018-01-03T01:19:11.754Z,26.4
2018-01-03T01:20:11.778Z,26.4
2018-01-03T01:21:08.608Z,26.4
2018-01-03T01:22:08.625Z,26.4
2018-01-03T01:23:11.894Z,26.4
2018-01-03T01:24:11.612Z,26.4
2018-01-03T01:25:11.588Z,26.4
2018-01-03T01:26:08.793Z,26.4
2018-01-03T01:27:11.758Z,26.4
2018-01-03T01:28:09.294Z,26.4
2018-01-03T01:29:09.014Z,26.4
2018-01-03T01:30:09.427Z,26.4
2018-01-03T01:31:09.124Z,26.4
2018-01-03T01:32:12.009Z,26.4
2018-01-03T01:33:12.388Z,26.4
2018-01-03T01:34:12.113Z,26.4
2018-01-03T01:35:12.448Z,26.4
2018-01-03T01:36:09.292Z,26.4
2018-01-03T01:37:09.659Z,26.4
2018-01-03T01:38:09.448Z,26.4
2018-01-03T01:39:09.730Z,26.4
2018-01-03T01:40:12.690Z,26.4
2018-01-03T01:41:12.698Z,26.4
2018-01-03T01:42:09.902Z,26.4
2018-01-03T01:43:09.699Z,26.4
2018-01-03T01:44:10.008Z,26.4
2018-01-03T01:45:10.024Z,26.4
2018-01-03T01:46:13.037Z,26.4
2018-01-03T01:47:13.065Z,26.4
2018-01-03T01:48:10.247Z,26.4
2018-01-03T01:49:13.211Z,26.4
2018-01-03T01:50:10.090Z,26.4
2018-01-03T01:51:10.138Z,26.4
2018-01-03T01:52:10.190Z,26.4
2018-01-03T01:53:10.456Z,26.4
2018-01-03T01:54:10.235Z,26.4
2018-01-03T01:55:10.648Z,26.4
2018-01-03T01:56:10.671Z,26.4
2018-01-03T01:57:13.298Z,26.4
2018-01-03T01:58:10.470Z,26.4
2018-01-03T01:59:13.816Z,26.4
2018-01-03T02:00:10.940Z,26.4
2018-01-03T02:01:10.724Z,26.4
2018-01-03T02:02:13.857Z,26.4
2018-01-03T02:03:10.984Z,26.4
2018-01-03T02:04:10.721Z,26.4
2018-01-03T02:05:10.702Z,26.4
2018-01-03T02:06:11.092Z,26.4
2018-01-03T02:07:14.111Z,26.4
2018-01-03T02:08:10.850Z,26.4
2018-01-03T02:09:10.943Z,26.4
2018-01-03T02:10:11.329Z,26.4
2018-01-03T02:11:14.318Z,26.4
2018-01-03T02:12:14.346Z,26.4
2018-01-03T02:13:11.158Z,26.4
2018-01-03T02:14:11.513Z,26.4
2018-01-03T02:15:11.581Z,26.4
2018-01-03T02:16:14.525Z,26.4
2018-01-03T02:17:11.342Z,26.4
2018-01-03T02:18:11.407Z,26.4
2018-01-03T02:19:11.779Z,26.4
2018-01-03T02:20:11.866Z,26.4
2018-01-03T02:21:11.595Z,26.4
2018-01-03T02:22:11.665Z,26.4
2018-01-03T02:23:11.658Z,26.4
2018-01-03T02:24:14.574Z,26.4
2018-01-03T02:25:11.724Z,26.4
2018-01-03T02:26:14.999Z,26.4
2018-01-03T02:27:12.122Z,26.4
2018-01-03T02:28:15.127Z,26.4
2018-01-03T02:29:12.315Z,26.4
2018-01-03T02:30:12.169Z,26.4
2018-01-03T02:31:12.147Z,26.4
2018-01-03T02:32:15.383Z,26.4
2018-01-03T02:33:15.080Z,26.4
2018-01-03T02:34:15.093Z,26.4
2018-01-03T02:35:15.536Z,26.4
2018-01-03T02:36:12.671Z,26.4
2018-01-03T02:37:12.357Z,26.5
2018-01-03T02:38:12.427Z,26.4
2018-01-03T02:39:15.730Z,26.5
2018-01-03T02:40:12.691Z,26.4
2018-01-03T02:41:12.656Z,26.4
2018-01-03T02:42:12.933Z,26.4
2018-01-03T02:43:15.853Z,26.4
2018-01-03T02:44:15.940Z,26.4
2018-01-03T02:45:13.157Z,26.4
2018-01-03T02:46:15.686Z,26.4
2018-01-03T02:47:13.191Z,26.4
2018-01-03T02:48:13.288Z,26.4
2018-01-03T02:49:15.846Z,26.4
2018-01-03T02:50:13.409Z,26.4
2018-01-03T02:51:16.268Z,26.4
2018-01-03T02:52:18.794Z,26.4
2018-01-03T02:53:16.393Z,26.4
2018-01-03T02:54:13.208Z,26.4
2018-01-03T02:55:13.284Z,26.4
2018-01-03T02:56:16.239Z,26.4
2018-01-03T02:57:16.630Z,26.4
2018-01-03T02:58:16.652Z,26.4
2018-01-03T02:59:13.438Z,26.4
2018-01-03T03:00:13.801Z,26.4
2018-01-03T03:01:13.583Z,26.4
2018-01-03T03:02:13.591Z,26.4
2018-01-03T03:03:13.740Z,26.4
2018-01-03T03:04:13.660Z,26.4
2018-01-03T03:05:13.733Z,26.4
2018-01-03T03:06:13.847Z,26.4
2018-01-03T03:07:17.108Z,26.4
2018-01-03T03:08:17.115Z,26.4
2018-01-03T03:09:13.916Z,26.4
2018-01-03T03:10:14.310Z,26.5
2018-01-03T03:11:14.076Z,26.5
2018-01-03T03:12:14.345Z,26.4
2018-01-03T03:13:17.287Z,26.5
2018-01-03T03:14:17.411Z,26.5
2018-01-03T03:15:14.589Z,26.4
2018-01-03T03:16:14.631Z,26.5
2018-01-03T03:17:14.335Z,26.5
2018-01-03T03:18:14.771Z,26.4
2018-01-03T03:19:17.446Z,26.5
2018-01-03T03:20:17.973Z,26.5
2018-01-03T03:21:14.562Z,26.5
2018-01-03T03:22:17.779Z,26.4
2018-01-03T03:23:14.689Z,26.4
2018-01-03T03:24:15.110Z,26.4
2018-01-03T03:25:14.814Z,26.4
2018-01-03T03:26:14.925Z,26.4
2018-01-03T03:27:14.965Z,26.4
2018-01-03T03:28:15.357Z,26.4
2018-01-03T03:29:15.373Z,26.5
2018-01-03T03:30:18.028Z,26.5
2018-01-03T03:31:18.099Z,26.4
2018-01-03T03:32:18.369Z,26.4
2018-01-03T03:33:15.301Z,26.4
2018-01-03T03:34:15.540Z,26.4
2018-01-03T03:35:18.542Z,26.4
2018-01-03T03:36:18.635Z,26.4
2018-01-03T03:37:15.793Z,26.4
2018-01-03T03:38:15.560Z,26.4
2018-01-03T03:39:16.023Z,26.4
2018-01-03T03:40:16.044Z,26.4
2018-01-03T03:41:18.990Z,26.4
2018-01-03T03:42:15.856Z,26.4
2018-01-03T03:43:15.831Z,26.4
2018-01-03T03:44:19.105Z,26.4
2018-01-03T03:45:16.010Z,26.5
2018-01-03T03:46:19.253Z,26.5
2018-01-03T03:47:18.941Z,26.5
2018-01-03T03:48:19.038Z,26.5
2018-01-03T03:49:16.565Z,26.4
2018-01-03T03:50:16.279Z,26.5
2018-01-03T03:51:19.475Z,26.5
2018-01-03T03:52:16.341Z,26.5
2018-01-03T03:53:16.464Z,26.4
2018-01-03T03:54:16.469Z,26.5
2018-01-03T03:55:19.907Z,26.5
2018-01-03T03:56:19.888Z,26.5
2018-01-03T03:57:16.776Z,26.5
2018-01-03T03:58:20.028Z,26.5
2018-01-03T03:59:19.867Z,26.5
2018-01-03T04:00:17.367Z,26.5
2018-01-03T04:01:20.900Z,26.5
2018-01-03T04:02:20.317Z,26.5
2018-01-03T04:03:17.396Z,26.5
2018-01-03T04:04:17.547Z,26.5
2018-01-03T04:05:17.483Z,26.5
2018-01-03T04:06:20.178Z,26.5
2018-01-03T04:07:17.354Z,26.4
2018-01-03T04:08:17.439Z,26.5
2018-01-03T04:09:20.676Z,26.5
2018-01-03T04:10:17.444Z,26.5
2018-01-03T04:11:20.685Z,26.4
2018-01-03T04:12:20.710Z,26.5
2018-01-03T04:13:17.870Z,26.5
2018-01-03T04:14:20.535Z,26.5
2018-01-03T04:15:20.898Z,26.5
2018-01-03T04:16:17.822Z,26.5
2018-01-03T04:17:18.123Z,26.4
2018-01-03T04:18:21.155Z,26.5
2018-01-03T04:19:20.872Z,26.5
2018-01-03T04:20:20.890Z,26.5
2018-01-03T04:21:18.100Z,26.5
2018-01-03T04:22:18.499Z,26.5
2018-01-03T04:23:18.543Z,26.5
2018-01-03T04:24:21.107Z,26.5
2018-01-03T04:25:18.708Z,26.4
2018-01-03T04:26:18.356Z,26.5
2018-01-03T04:27:21.660Z,26.5
2018-01-03T04:28:18.801Z,26.5
2018-01-03T04:29:21.677Z,26.5
2018-01-03T04:30:18.878Z,26.4
2018-01-03T04:31:21.769Z,26.5
2018-01-03T04:32:18.902Z,26.5
2018-01-03T04:33:18.714Z,26.5
2018-01-03T04:34:21.871Z,26.5
2018-01-03T04:35:21.969Z,26.5
2018-01-03T04:36:18.767Z,26.5
2018-01-03T04:37:19.220Z,26.5
2018-01-03T04:38:18.931Z,26.4
2018-01-03T04:39:22.179Z,26.5
2018-01-03T04:40:22.346Z,26.5
2018-01-03T04:41:19.455Z,26.4
2018-01-03T04:42:19.129Z,26.4
2018-01-03T04:43:22.363Z,26.4
2018-01-03T04:44:19.268Z,26.4
2018-01-03T04:45:22.499Z,26.4
2018-01-03T04:46:19.381Z,26.4
2018-01-03T04:47:19.390Z,26.4
2018-01-03T04:48:19.462Z,26.4
2018-01-03T04:49:19.529Z,26.4
2018-01-03T04:50:22.821Z,26.4
2018-01-03T04:51:19.664Z,26.3
2018-01-03T04:52:22.909Z,26.4
2018-01-03T04:53:19.787Z,26.4
2018-01-03T04:54:20.188Z,26.4
2018-01-03T04:55:22.740Z,26.3
2018-01-03T04:56:19.941Z,26.4
2018-01-03T04:57:22.812Z,26.4
2018-01-03T04:58:23.187Z,26.4
2018-01-03T04:59:23.233Z,26.3
2018-01-03T05:00:20.421Z,26.4
2018-01-03T05:01:23.360Z,26.4
2018-01-03T05:02:20.533Z,26.4
2018-01-03T05:03:23.495Z,26.4
2018-01-03T05:04:20.672Z,26.4
2018-01-03T05:05:23.678Z,26.4
2018-01-03T05:06:23.446Z,26.5
2018-01-03T05:07:20.604Z,26.5
2018-01-03T05:08:20.739Z,26.5
2018-01-03T05:09:20.727Z,26.5
2018-01-03T05:10:20.767Z,26.5
2018-01-03T05:11:21.121Z,26.5
2018-01-03T05:12:20.909Z,26.5
2018-01-03T05:13:24.068Z,26.5
2018-01-03T05:14:24.067Z,26.5
2018-01-03T05:15:23.738Z,26.5
2018-01-03T05:16:21.232Z,26.5
2018-01-03T05:17:21.028Z,26.5
2018-01-03T05:18:21.353Z,26.5
2018-01-03T05:19:24.360Z,26.5
2018-01-03T05:20:21.244Z,26.5
2018-01-03T05:21:24.459Z,26.5
2018-01-03T05:22:24.169Z,26.5
2018-01-03T05:23:21.557Z,26.5
2018-01-03T05:24:21.290Z,26.5
2018-01-03T05:25:21.360Z,26.5
2018-01-03T05:26:21.821Z,26.5
2018-01-03T05:27:21.470Z,26.5
2018-01-03T05:28:24.773Z,26.5
2018-01-03T05:29:21.893Z,26.5
2018-01-03T05:30:24.786Z,26.5
2018-01-03T05:31:24.777Z,26.5
2018-01-03T05:32:22.019Z,26.5
2018-01-03T05:33:24.927Z,26.5
2018-01-03T05:34:25.023Z,26.5
2018-01-03T05:35:22.152Z,26.5
2018-01-03T05:42:41.773Z,26.4
2018-01-03T05:43:44.333Z,26.3
2018-01-03T05:44:41.198Z,26.4
2018-01-03T05:45:44.410Z,26.4
2018-01-03T05:46:44.664Z,26.4
2018-01-03T05:47:44.481Z,26.5
2018-01-03T05:48:41.491Z,26.5
2018-01-03T05:49:44.716Z,26.5
2018-01-03T05:50:41.609Z,26.5
2018-01-03T05:51:41.618Z,26.5
2018-01-03T05:52:41.701Z,26.5
2018-01-03T05:53:41.709Z,26.5
2018-01-03T05:54:42.177Z,26.5
2018-01-03T05:55:45.106Z,26.6
2018-01-03T05:56:41.905Z,26.5
2018-01-03T05:57:45.156Z,26.6
2018-01-03T05:58:42.054Z,26.6
2018-01-03T05:59:42.082Z,26.6
2018-01-03T06:00:42.122Z,26.6
2018-01-03T06:01:42.186Z,26.6
2018-01-03T06:02:42.469Z,26.6
2018-01-03T06:03:42.167Z,26.6
2018-01-03T06:04:42.604Z,26.6
2018-01-03T06:05:42.615Z,26.6
2018-01-03T06:06:42.634Z,26.6
2018-01-03T06:07:42.383Z,26.6
2018-01-03T06:08:45.631Z,26.6
2018-01-03T06:09:42.495Z,26.6
2018-01-03T06:10:42.571Z,26.6
2018-01-03T06:11:42.592Z,26.6
2018-01-03T06:12:42.749Z,26.7
2018-01-03T06:13:42.990Z,26.7
2018-01-03T06:14:42.762Z,26.7
2018-01-03T06:15:45.699Z,26.6
2018-01-03T06:16:43.184Z,26.6
2018-01-03T06:17:43.226Z,26.7
2018-01-03T06:18:46.151Z,26.6
2018-01-03T06:19:45.899Z,26.7
2018-01-03T06:20:43.035Z,26.7
2018-01-03T06:21:43.093Z,26.7
2018-01-03T06:22:43.090Z,26.6
2018-01-03T06:23:43.306Z,26.7
2018-01-03T06:24:43.822Z,26.7
2018-01-03T06:25:43.662Z,26.7
2018-01-03T06:26:43.392Z,26.7
2018-01-03T06:27:46.303Z,26.7
2018-01-03T06:28:43.531Z,26.6
2018-01-03T06:29:45.291Z,26.7
2018-01-03T06:30:50.076Z,26.7
2018-01-03T06:31:43.840Z,26.6
2018-01-03T06:32:43.596Z,26.7
2018-01-03T06:33:43.590Z,26.7
2018-01-03T06:34:44.000Z,26.7
2018-01-03T06:35:43.701Z,26.6
2018-01-03T06:36:47.017Z,26.7
2018-01-03T06:37:43.940Z,26.7
2018-01-03T06:38:46.753Z,26.7
2018-01-03T06:39:47.137Z,26.7
2018-01-03T06:40:47.161Z,26.7
2018-01-03T06:41:44.294Z,26.7
2018-01-03T06:42:44.411Z,26.7
2018-01-03T06:43:44.456Z,26.7
2018-01-03T06:44:47.013Z,26.7
2018-01-03T06:45:47.423Z,26.7
2018-01-03T06:46:47.445Z,26.7
2018-01-03T06:47:47.343Z,26.7
2018-01-03T06:48:47.297Z,26.7
2018-01-03T06:49:47.611Z,26.7
2018-01-03T06:50:45.802Z,26.7
2018-01-03T06:51:44.555Z,26.7
2018-01-03T06:52:44.955Z,26.7
2018-01-03T06:53:44.728Z,26.7
2018-01-03T06:54:47.947Z,26.7
2018-01-03T06:55:48.056Z,26.7
2018-01-03T06:56:44.909Z,26.7
2018-01-03T06:57:48.018Z,26.7
2018-01-03T06:58:47.696Z,26.7
2018-01-03T06:59:44.975Z,26.7
2018-01-03T07:00:45.011Z,26.7
2018-01-03T07:01:45.308Z,26.7
2018-01-03T07:02:48.384Z,26.7
2018-01-03T07:03:45.301Z,26.7
2018-01-03T07:04:45.315Z,26.7
2018-01-03T07:05:48.188Z,26.8
2018-01-03T07:06:49.151Z,26.8
2018-01-03T07:07:45.681Z,26.7
2018-01-03T07:08:45.824Z,26.8
2018-01-03T07:09:45.590Z,26.8
2018-01-03T07:10:48.836Z,26.8
2018-01-03T07:11:45.633Z,26.8
2018-01-03T07:12:45.672Z,26.8
2018-01-03T07:13:48.887Z,26.8
2018-01-03T07:14:45.715Z,26.7
2018-01-03T07:15:48.599Z,26.8
2018-01-03T07:16:45.863Z,26.7
2018-01-03T07:17:46.314Z,26.8
2018-01-03T07:18:45.968Z,26.7
2018-01-03T07:19:49.119Z,26.8
2018-01-03T07:20:46.165Z,26.8
2018-01-03T07:21:49.173Z,26.8
2018-01-03T07:22:45.991Z,26.8
2018-01-03T07:23:46.384Z,26.8
2018-01-03T07:24:46.429Z,26.8
2018-01-03T07:25:46.326Z,26.9
2018-01-03T07:26:49.503Z,26.9
2018-01-03T07:27:46.276Z,26.9
2018-01-03T07:28:46.317Z,26.9
2018-01-03T07:29:49.614Z,26.9
2018-01-03T07:30:46.688Z,26.9
2018-01-03T07:31:46.532Z,26.9
2018-01-03T07:32:49.426Z,26.9
2018-01-03T07:33:46.921Z,27
2018-01-03T07:34:47.047Z,26.9
2018-01-03T07:35:50.030Z,27
2018-01-03T07:36:47.116Z,27
2018-01-03T07:37:49.678Z,27
2018-01-03T07:38:47.266Z,27
2018-01-03T07:39:49.941Z,27
2018-01-03T07:40:47.102Z,27
2018-01-03T07:41:47.639Z,27.1
2018-01-03T07:42:47.177Z,27
2018-01-03T07:43:47.315Z,27.1
2018-01-03T07:44:50.602Z,27.1
2018-01-03T07:45:47.746Z,27.1
2018-01-03T07:46:47.824Z,27.1
2018-01-03T07:47:47.852Z,27.1
2018-01-03T07:48:47.906Z,27.1
2018-01-03T07:49:48.406Z,27.1
2018-01-03T07:50:50.546Z,27.1
2018-01-03T07:51:50.991Z,27.2
2018-01-03T07:52:47.804Z,27.1
2018-01-03T07:53:48.196Z,27.2
2018-01-03T07:54:51.060Z,27.2
2018-01-03T07:55:47.966Z,27.2
2018-01-03T07:56:48.037Z,27.2
2018-01-03T07:57:48.217Z,27.2
2018-01-03T07:58:48.470Z,27.2
2018-01-03T07:59:51.368Z,27.3
2018-01-03T08:00:48.203Z,27.3
2018-01-03T08:01:51.414Z,27.3
2018-01-03T08:02:51.429Z,27.2
2018-01-03T08:03:51.131Z,27.3
2018-01-03T08:04:48.665Z,27.3
2018-01-03T08:05:51.530Z,27.3
2018-01-03T08:06:52.338Z,27.4
2018-01-03T08:07:48.384Z,27.4
2018-01-03T08:08:51.707Z,27.4
2018-01-03T08:09:48.548Z,27.3
2018-01-03T08:10:49.033Z,27.4
2018-01-03T08:11:48.974Z,27.4
2018-01-03T08:12:48.684Z,27.4
2018-01-03T08:13:51.903Z,27.4
2018-01-03T08:14:49.000Z,27.4
2018-01-03T08:15:48.750Z,27.4
2018-01-03T08:16:49.145Z,27.4
2018-01-03T08:17:51.808Z,27.4
2018-01-03T08:18:52.114Z,27.5
2018-01-03T08:19:51.853Z,27.4
2018-01-03T08:20:48.971Z,27.4
2018-01-03T08:21:49.363Z,27.5
2018-01-03T08:22:48.978Z,27.5
2018-01-03T08:23:52.299Z,27.5
2018-01-03T08:24:49.140Z,27.5
2018-01-03T08:25:49.482Z,27.5
2018-01-03T08:26:49.583Z,27.5
2018-01-03T08:27:49.217Z,27.5
2018-01-03T08:28:49.556Z,27.5
2018-01-03T08:29:49.350Z,27.5
2018-01-03T08:30:49.922Z,27.5
2018-01-03T08:31:52.739Z,27.6
2018-01-03T08:32:52.496Z,27.5
2018-01-03T08:33:49.896Z,27.5
2018-01-03T08:34:49.584Z,27.6
2018-01-03T08:35:52.483Z,27.6
2018-01-03T08:36:50.127Z,27.6
2018-01-03T08:37:49.710Z,27.6
2018-01-03T08:38:49.961Z,27.6
2018-01-03T08:39:52.949Z,27.6
2018-01-03T08:40:52.984Z,27.6
2018-01-03T08:41:50.171Z,27.7
2018-01-03T08:42:49.886Z,27.7
2018-01-03T08:43:50.447Z,27.7
2018-01-03T08:44:53.245Z,27.7
2018-01-03T08:45:53.348Z,27.6
2018-01-03T08:46:53.484Z,27.7
2018-01-03T08:47:50.640Z,27.7
2018-01-03T08:48:50.364Z,27.7
2018-01-03T08:49:50.645Z,27.8
2018-01-03T08:50:53.409Z,27.8
2018-01-03T08:51:53.367Z,27.8
2018-01-03T08:52:50.594Z,27.7
2018-01-03T08:53:53.804Z,27.8
2018-01-03T08:54:50.665Z,27.8
2018-01-03T08:55:50.589Z,27.8
2018-01-03T08:56:50.970Z,27.8
2018-01-03T08:57:54.056Z,27.8
2018-01-03T08:58:50.828Z,27.9
2018-01-03T08:59:50.900Z,27.8
2018-01-03T09:00:51.022Z,27.9
2018-01-03T09:01:51.192Z,27.9
2018-01-03T09:02:54.258Z,27.9
2018-01-03T09:03:51.044Z,27.9
2018-01-03T09:04:51.319Z,27.9
2018-01-03T09:05:51.101Z,27.9
2018-01-03T09:06:51.529Z,27.9
2018-01-03T09:07:51.376Z,27.9
2018-01-03T09:08:51.618Z,27.9
2018-01-03T09:09:51.446Z,27.9
2018-01-03T09:10:54.505Z,27.9
2018-01-03T09:11:54.401Z,27.9
2018-01-03T09:12:51.855Z,27.9
2018-01-03T09:13:51.711Z,27.9
2018-01-03T09:14:55.002Z,27.9
2018-01-03T09:15:55.113Z,28
2018-01-03T09:16:51.801Z,28
2018-01-03T09:17:55.085Z,28
2018-01-03T09:18:51.871Z,28
2018-01-03T09:19:55.226Z,28
2018-01-03T09:20:52.257Z,28
2018-01-03T09:21:52.389Z,28
2018-01-03T09:22:55.361Z,28
2018-01-03T09:23:55.009Z,28
2018-01-03T09:24:52.476Z,28
2018-01-03T09:25:52.516Z,28
2018-01-03T09:26:52.172Z,28
2018-01-03T09:27:52.641Z,28
2018-01-03T09:28:53.156Z,28
2018-01-03T09:29:55.630Z,28
2018-01-03T09:30:55.763Z,28.1
2018-01-03T09:31:55.613Z,28.1
2018-01-03T09:32:52.512Z,28.1
2018-01-03T09:33:55.840Z,28.2
2018-01-03T09:34:52.975Z,28.3
2018-01-03T09:35:52.847Z,28.3
2018-01-03T09:36:56.066Z,28.4
2018-01-03T09:37:52.903Z,28.4
2018-01-03T09:38:56.119Z,28.5
2018-01-03T09:39:56.366Z,28.6
2018-01-03T09:40:52.963Z,28.6
2018-01-03T09:41:53.099Z,28.7
2018-01-03T09:42:53.545Z,28.8
2018-01-03T09:43:53.634Z,28.8
2018-01-03T09:44:53.255Z,28.8
2018-01-03T09:45:53.614Z,28.9
2018-01-03T09:46:53.288Z,29
2018-01-03T09:47:56.584Z,29
2018-01-03T09:48:53.423Z,29
2018-01-03T09:49:53.459Z,29.1
2018-01-03T09:50:56.703Z,29.1
2018-01-03T09:51:56.764Z,29
2018-01-03T09:52:53.655Z,29
2018-01-03T09:53:53.756Z,29
2018-01-03T09:54:54.526Z,29
2018-01-03T09:55:54.252Z,29
2018-01-03T09:56:53.858Z,29
2018-01-03T09:57:57.041Z,29
2018-01-03T09:58:54.215Z,28.9
2018-01-03T09:59:56.798Z,28.8
2018-01-03T10:00:53.952Z,28.8
2018-01-03T10:01:54.390Z,28.8
2018-01-03T10:02:56.944Z,28.7
2018-01-03T10:03:54.932Z,28.8
2018-01-03T10:04:54.433Z,28.7
2018-01-03T10:05:57.616Z,28.7
2018-01-03T10:06:57.593Z,28.7
2018-01-03T10:07:54.286Z,28.7
2018-01-03T10:08:54.301Z,28.7
2018-01-03T10:09:57.453Z,28.7
2018-01-03T10:10:54.400Z,28.8
2018-01-03T10:11:57.297Z,28.8
2018-01-03T10:12:54.379Z,28.8
2018-01-03T10:13:54.482Z,28.8
2018-01-03T10:14:57.447Z,28.8
2018-01-03T10:15:54.741Z,28.9
2018-01-03T10:16:54.927Z,28.9
2018-01-03T10:17:54.888Z,28.9
2018-01-03T10:18:54.958Z,29
2018-01-03T10:19:54.672Z,29
2018-01-03T10:20:57.971Z,29
2018-01-03T10:21:54.781Z,29
2018-01-03T10:22:54.816Z,29.1
2018-01-03T10:23:55.058Z,29.1
2018-01-03T10:24:55.045Z,29
2018-01-03T10:25:54.828Z,29.1
2018-01-03T10:26:54.812Z,29.1
2018-01-03T10:27:54.869Z,29.1
2018-01-03T10:28:57.815Z,29.1
2018-01-03T10:29:55.253Z,29.1
2018-01-03T10:30:55.138Z,29.1
2018-01-03T10:31:55.167Z,29.1
2018-01-03T10:32:58.236Z,29.1
2018-01-03T10:33:55.207Z,29.1
2018-01-03T10:34:55.288Z,29.1
2018-01-03T10:35:55.332Z,29.1
2018-01-03T10:36:58.601Z,29.1
2018-01-03T10:37:55.527Z,29
2018-01-03T10:38:55.815Z,29.1
2018-01-03T10:39:56.022Z,29.1
2018-01-03T10:40:56.134Z,29.1
2018-01-03T10:41:56.096Z,29.1
2018-01-03T10:42:56.176Z,29.1
2018-01-03T10:43:55.860Z,29.1
2018-01-03T10:44:56.024Z,29.1
2018-01-03T10:45:56.119Z,29.1
2018-01-03T10:46:56.252Z,29.1
2018-01-03T10:47:56.619Z,29.1
2018-01-03T10:48:59.640Z,29.1
2018-01-03T10:49:56.598Z,29.2
2018-01-03T10:50:56.379Z,29.2
2018-01-03T10:51:56.343Z,29.2
2018-01-03T10:52:59.315Z,29.2
2018-01-03T10:53:56.878Z,29.2
2018-01-03T10:54:56.600Z,29.1
2018-01-03T10:55:59.801Z,29.1
2018-01-03T10:56:56.743Z,29
2018-01-03T10:57:59.659Z,29.1
2018-01-03T10:58:56.819Z,29.1
2018-01-03T10:59:56.918Z,29.1
2018-01-03T11:00:56.892Z,29.1
2018-01-03T11:02:00.225Z,29.1
2018-01-03T11:02:57.042Z,29.1
2018-01-03T11:03:59.877Z,29
2018-01-03T11:04:59.943Z,29.1
2018-01-03T11:06:00.018Z,29.1
2018-01-03T11:07:00.255Z,29
2018-01-03T11:07:57.134Z,29
2018-01-03T11:09:00.391Z,29.1
2018-01-03T11:10:00.096Z,29.1
2018-01-03T11:11:00.256Z,29.1
2018-01-03T11:12:00.550Z,29
2018-01-03T11:12:57.368Z,29
2018-01-03T11:14:00.269Z,29
2018-01-03T11:15:00.688Z,29
2018-01-03T11:15:57.619Z,29
2018-01-03T11:16:57.459Z,29
2018-01-03T11:17:57.420Z,29
2018-01-03T11:18:57.458Z,29
2018-01-03T11:20:00.723Z,29
2018-01-03T11:21:00.273Z,29
2018-01-03T11:22:00.380Z,29
2018-01-03T11:23:00.763Z,29.1
2018-01-03T11:23:57.718Z,29.1
2018-01-03T11:24:57.709Z,29.1
2018-01-03T11:25:58.212Z,29.1
2018-01-03T11:27:00.633Z,29.1
2018-01-03T11:27:57.778Z,29
2018-01-03T11:28:58.141Z,29.1
2018-01-03T11:29:57.927Z,29.1
2018-01-03T11:31:00.853Z,29.1
2018-01-03T11:32:01.215Z,29.1
2018-01-03T11:32:58.305Z,29.1
2018-01-03T11:34:01.625Z,29
2018-01-03T11:35:01.330Z,29.1
2018-01-03T11:35:58.176Z,29.1
2018-01-03T11:36:58.173Z,29.1
2018-01-03T11:37:58.569Z,29.1
2018-01-03T11:38:58.592Z,29.1
2018-01-03T11:40:01.243Z,29.1
2018-01-03T11:41:01.262Z,29.1
2018-01-03T11:42:01.444Z,29.1
2018-01-03T11:43:01.731Z,29
2018-01-03T11:44:01.488Z,29
2018-01-03T11:44:58.593Z,29.1
2018-01-03T11:45:58.651Z,29.1
2018-01-03T11:47:01.893Z,29.1
2018-01-03T11:48:01.610Z,29.1
2018-01-03T11:48:58.832Z,29.1
2018-01-03T11:49:58.870Z,29.1
2018-01-03T11:50:59.238Z,29.1
2018-01-03T11:51:59.289Z,29.1
2018-01-03T11:53:02.235Z,29.1
2018-01-03T11:53:59.394Z,29.1
2018-01-03T11:54:59.090Z,29.1
2018-01-03T11:56:02.380Z,29.1
2018-01-03T11:56:59.174Z,29.1
2018-01-03T11:57:59.229Z,29.1
2018-01-03T11:58:59.232Z,29.1
2018-01-03T12:00:02.222Z,29.1
2018-01-03T12:01:02.578Z,29.1
2018-01-03T12:01:59.739Z,29.1
2018-01-03T12:03:02.637Z,29.1
2018-01-03T12:04:02.370Z,29.1
2018-01-03T12:04:59.531Z,29.1
2018-01-03T12:06:02.776Z,29.1
2018-01-03T12:06:59.566Z,29.1
2018-01-03T12:07:59.625Z,29.1
2018-01-03T12:09:02.907Z,29.1
2018-01-03T12:10:02.857Z,29.1
2018-01-03T12:11:03.073Z,29.1
2018-01-03T12:12:02.901Z,29.1
2018-01-03T12:13:02.606Z,29.1
2018-01-03T12:14:00.100Z,29.1
2018-01-03T12:14:59.849Z,29.1
2018-01-03T12:16:03.085Z,29
2018-01-03T12:17:00.219Z,29
2018-01-03T12:18:00.331Z,29
2018-01-03T12:19:03.222Z,29
2018-01-03T12:20:02.950Z,29
2018-01-03T12:21:00.307Z,29
2018-01-03T12:22:00.152Z,29
2018-01-03T12:23:00.259Z,28.9
2018-01-03T12:24:00.594Z,29
2018-01-03T12:25:00.666Z,29
2018-01-03T12:26:00.857Z,29
2018-01-03T12:27:00.510Z,29
2018-01-03T12:28:00.940Z,28.9
2018-01-03T12:29:00.631Z,28.9
2018-01-03T12:30:00.752Z,29
2018-01-03T12:31:00.714Z,28.9
2018-01-03T12:32:01.136Z,28.9
2018-01-03T12:33:00.826Z,28.9
2018-01-03T12:34:04.029Z,28.9
2018-01-03T12:35:00.935Z,28.9
2018-01-03T12:36:04.300Z,28.9
2018-01-03T12:37:04.806Z,28.9
2018-01-03T12:38:01.336Z,28.9
2018-01-03T12:39:01.088Z,28.9
2018-01-03T12:40:01.138Z,28.9
2018-01-03T12:41:01.505Z,28.9
2018-01-03T12:42:01.263Z,28.9
2018-01-03T12:43:01.240Z,28.8
2018-01-03T12:44:01.665Z,28.9
2018-01-03T12:45:04.635Z,28.9
2018-01-03T12:46:04.345Z,28.9
2018-01-03T12:47:01.567Z,28.8
2018-01-03T12:48:01.878Z,28.4
2018-01-03T12:49:01.512Z,28.1
2018-01-03T12:50:01.994Z,27.8
2018-01-03T12:51:01.766Z,27.5
2018-01-03T12:52:04.706Z,27.3
2018-01-03T12:53:01.865Z,27.3
2018-01-03T12:54:04.685Z,27.4
2018-01-03T12:55:04.882Z,27.4
2018-01-03T12:56:01.925Z,27.5
2018-01-03T12:57:05.178Z,27.5
2018-01-03T12:58:04.952Z,27.6
2018-01-03T12:59:02.122Z,27.7
2018-01-03T13:00:05.042Z,27.8
2018-01-03T13:01:05.152Z,27.8
2018-01-03T13:02:02.553Z,27.9
2018-01-03T13:03:02.448Z,28
2018-01-03T13:04:02.471Z,28
2018-01-03T13:05:02.539Z,28.1
2018-01-03T13:06:02.757Z,28.2
2018-01-03T13:07:05.738Z,28.2
2018-01-03T13:08:02.873Z,28.3
2018-01-03T13:09:02.939Z,28.3
2018-01-03T13:10:05.818Z,28.4
2018-01-03T13:11:02.569Z,28.4
2018-01-03T13:12:05.832Z,28.4
2018-01-03T13:13:02.690Z,28.5
2018-01-03T13:14:02.773Z,28.5
2018-01-03T13:15:05.980Z,28.5
2018-01-03T13:16:06.118Z,28.6
2018-01-03T13:17:06.065Z,28.6
2018-01-03T13:18:03.262Z,28.6
2018-01-03T13:19:03.302Z,28.6
2018-01-03T13:20:06.210Z,28.7
2018-01-03T13:21:03.470Z,28.7
2018-01-03T13:22:06.419Z,28.7
2018-01-03T13:23:03.192Z,28.7
2018-01-03T13:24:03.257Z,28.7
2018-01-03T13:25:03.284Z,28.7
2018-01-03T13:26:06.458Z,28.7
2018-01-03T13:27:06.567Z,28.8
2018-01-03T13:28:06.608Z,28.7
2018-01-03T13:29:03.551Z,28.8
2018-01-03T13:30:03.664Z,28.8